sensor_id;sensor_type;location;lat;lon;timestamp;pressure;altitude;pressure_sealevel;temperature;humidity
8416;BME280;4245;42.120;24.732;2023-03-01T00:01:28;100063.03;;;7.37;100.00
8416;BME280;4245;42.120;24.732;2023-03-01T00:03:57;100060.53;;;7.34;100.00
8416;BME280;4245;42.120;24.732;2023-03-01T00:06:24;100071.78;;;7.39;100.00
8416;BME280;4245;42.120;24.732;2023-03-01T00:08:51;100074.28;;;7.22;100.00
8416;BME280;4245;42.120;24.732;2023-03-01T00:11:20;100078.59;;;7.25;100.00
8416;BME280;4245;42.120;24.732;2023-03-01T00:13:48;100077.94;;;7.20;100.00
8416;BME280;4245;42.120;24.732;2023-03-01T00:16:18;100068.78;;;7.27;100.00
8416;BME280;4245;42.120;24.732;2023-03-01T00:18:45;100074.63;;;7.15;100.00
8416;BME280;4245;42.120;24.732;2023-03-01T00:21:14;100071.97;;;7.35;100.00
8416;BME280;4245;42.120;24.732;2023-03-01T00:23:41;100072.25;;;7.29;100.00
8416;BME280;4245;42.120;24.732;2023-03-01T00:26:10;100064.97;;;7.34;100.00
8416;BME280;4245;42.120;24.732;2023-03-01T00:28:38;100069.66;;;7.27;100.00
8416;BME280;4245;42.120;24.732;2023-03-01T00:31:07;100060.81;;;7.28;100.00
8416;BME280;4245;42.120;24.732;2023-03-01T00:33:34;100070.66;;;7.25;100.00
8416;BME280;4245;42.120;24.732;2023-03-01T00:36:01;100067.66;;;7.32;100.00
8416;BME280;4245;42.120;24.732;2023-03-01T00:38:30;100056.88;;;7.37;100.00
8416;BME280;4245;42.120;24.732;2023-03-01T00:41:03;100057.31;;;7.28;100.00
8416;BME280;4245;42.120;24.732;2023-03-01T00:43:30;100049.31;;;7.29;100.00
8416;BME280;4245;42.120;24.732;2023-03-01T00:46:01;100048.03;;;7.38;100.00
8416;BME280;4245;42.120;24.732;2023-03-01T00:48:28;100051.75;;;7.34;100.00
8416;BME280;4245;42.120;24.732;2023-03-01T00:50:55;100039.59;;;7.30;100.00
8416;BME280;4245;42.120;24.732;2023-03-01T00:53:22;100033.47;;;7.29;100.00
8416;BME280;4245;42.120;24.732;2023-03-01T00:55:50;100033.25;;;7.34;100.00
8416;BME280;4245;42.120;24.732;2023-03-01T00:58:17;100035.25;;;7.29;100.00
8416;BME280;4245;42.120;24.732;2023-03-01T01:00:44;100031.59;;;7.31;100.00
8416;BME280;4245;42.120;24.732;2023-03-01T01:03:11;100037.03;;;7.28;100.00
8416;BME280;4245;42.120;24.732;2023-03-01T01:05:38;100029.69;;;7.35;100.00
8416;BME280;4245;42.120;24.732;2023-03-01T01:08:05;100031.97;;;7.42;100.00
8416;BME280;4245;42.120;24.732;2023-03-01T01:10:33;100035.31;;;7.46;100.00
8416;BME280;4245;42.120;24.732;2023-03-01T01:13:01;100035.25;;;7.48;100.00
8416;BME280;4245;42.120;24.732;2023-03-01T01:15:29;100028.72;;;7.36;100.00
8416;BME280;4245;42.120;24.732;2023-03-01T01:17:56;100026.31;;;7.31;100.00
8416;BME280;4245;42.120;24.732;2023-03-01T01:20:23;100017.41;;;7.34;100.00
8416;BME280;4245;42.120;24.732;2023-03-01T01:22:50;100018.75;;;7.42;100.00
8416;BME280;4245;42.120;24.732;2023-03-01T01:25:17;100021.34;;;7.44;100.00
8416;BME280;4245;42.120;24.732;2023-03-01T01:27:44;100023.72;;;7.50;100.00
8416;BME280;4245;42.120;24.732;2023-03-01T01:30:13;100027.28;;;7.49;100.00
8416;BME280;4245;42.120;24.732;2023-03-01T01:32:40;100015.41;;;7.39;100.00
8416;BME280;4245;42.120;24.732;2023-03-01T01:35:07;100013.53;;;7.41;100.00
8416;BME280;4245;42.120;24.732;2023-03-01T01:37:34;100013.91;;;7.52;100.00
8416;BME280;4245;42.120;24.732;2023-03-01T01:40:01;100015.13;;;7.45;100.00
8416;BME280;4245;42.120;24.732;2023-03-01T01:42:30;100016.56;;;7.52;100.00
8416;BME280;4245;42.120;24.732;2023-03-01T01:45:31;100011.47;;;7.48;100.00
8416;BME280;4245;42.120;24.732;2023-03-01T01:48:02;100016.13;;;7.42;100.00
8416;BME280;4245;42.120;24.732;2023-03-01T01:50:30;100013.41;;;7.44;100.00
8416;BME280;4245;42.120;24.732;2023-03-01T01:53:07;100013.47;;;7.42;100.00
8416;BME280;4245;42.120;24.732;2023-03-01T01:55:36;100007.09;;;7.47;100.00
8416;BME280;4245;42.120;24.732;2023-03-01T01:58:09;100004.63;;;7.43;100.00
8416;BME280;4245;42.120;24.732;2023-03-01T02:00:38;100003.75;;;7.43;100.00
8416;BME280;4245;42.120;24.732;2023-03-01T02:03:08;100007.09;;;7.47;100.00
8416;BME280;4245;42.120;24.732;2023-03-01T02:05:39;100004.78;;;7.40;100.00
8416;BME280;4245;42.120;24.732;2023-03-01T02:08:11;99996.84;;;7.40;100.00
8416;BME280;4245;42.120;24.732;2023-03-01T02:10:39;100006.81;;;7.34;100.00
8416;BME280;4245;42.120;24.732;2023-03-01T02:13:07;100000.25;;;7.42;100.00
8416;BME280;4245;42.120;24.732;2023-03-01T02:15:35;100002.41;;;7.53;100.00
8416;BME280;4245;42.120;24.732;2023-03-01T02:18:06;99997.41;;;7.47;100.00
8416;BME280;4245;42.120;24.732;2023-03-01T02:20:37;99998.25;;;7.48;100.00
8416;BME280;4245;42.120;24.732;2023-03-01T02:23:07;100000.97;;;7.46;100.00
8416;BME280;4245;42.120;24.732;2023-03-01T02:25:40;100000.47;;;7.38;100.00
8416;BME280;4245;42.120;24.732;2023-03-01T02:31:02;99996.91;;;7.39;100.00
8416;BME280;4245;42.120;24.732;2023-03-01T02:33:47;99998.69;;;7.38;100.00
8416;BME280;4245;42.120;24.732;2023-03-01T02:36:17;99998.41;;;7.26;100.00
8416;BME280;4245;42.120;24.732;2023-03-01T02:38:46;99995.88;;;7.23;100.00
8416;BME280;4245;42.120;24.732;2023-03-01T02:41:15;99997.59;;;7.24;100.00
8416;BME280;4245;42.120;24.732;2023-03-01T02:43:44;100001.22;;;7.21;100.00
8416;BME280;4245;42.120;24.732;2023-03-01T02:46:15;100000.03;;;7.28;100.00
8416;BME280;4245;42.120;24.732;2023-03-01T02:48:44;99993.13;;;7.26;100.00
8416;BME280;4245;42.120;24.732;2023-03-01T02:51:31;99993.94;;;7.26;100.00
8416;BME280;4245;42.120;24.732;2023-03-01T02:54:08;99987.50;;;7.13;100.00
8416;BME280;4245;42.120;24.732;2023-03-01T02:56:38;99994.25;;;7.20;100.00
8416;BME280;4245;42.120;24.732;2023-03-01T02:59:07;99992.69;;;7.35;100.00
8416;BME280;4245;42.120;24.732;2023-03-01T03:01:35;99992.25;;;7.25;100.00
8416;BME280;4245;42.120;24.732;2023-03-01T03:04:08;99983.53;;;7.23;100.00
8416;BME280;4245;42.120;24.732;2023-03-01T03:06:35;99996.72;;;7.23;100.00
8416;BME280;4245;42.120;24.732;2023-03-01T03:09:03;100000.09;;;7.27;100.00
8416;BME280;4245;42.120;24.732;2023-03-01T03:11:31;99999.22;;;7.26;100.00
8416;BME280;4245;42.120;24.732;2023-03-01T03:13:58;99987.88;;;7.24;100.00
8416;BME280;4245;42.120;24.732;2023-03-01T03:16:26;99986.38;;;7.19;100.00
8416;BME280;4245;42.120;24.732;2023-03-01T03:18:55;99990.66;;;7.21;100.00
8416;BME280;4245;42.120;24.732;2023-03-01T03:21:30;99984.53;;;7.21;100.00
8416;BME280;4245;42.120;24.732;2023-03-01T03:23:57;99979.56;;;7.13;100.00
8416;BME280;4245;42.120;24.732;2023-03-01T03:26:24;99985.78;;;7.12;100.00
8416;BME280;4245;42.120;24.732;2023-03-01T03:28:51;99984.81;;;7.15;100.00
8416;BME280;4245;42.120;24.732;2023-03-01T03:31:18;99991.50;;;7.22;100.00
8416;BME280;4245;42.120;24.732;2023-03-01T03:33:46;99988.97;;;7.20;100.00
8416;BME280;4245;42.120;24.732;2023-03-01T03:36:15;99992.78;;;7.13;100.00
8416;BME280;4245;42.120;24.732;2023-03-01T03:38:43;99993.66;;;7.14;100.00
8416;BME280;4245;42.120;24.732;2023-03-01T03:41:11;99989.59;;;7.25;100.00
8416;BME280;4245;42.120;24.732;2023-03-01T03:43:39;99975.88;;;7.17;100.00
8416;BME280;4245;42.120;24.732;2023-03-01T03:46:08;99972.56;;;7.12;100.00
8416;BME280;4245;42.120;24.732;2023-03-01T03:48:37;99968.88;;;7.16;100.00
8416;BME280;4245;42.120;24.732;2023-03-01T03:51:06;99964.44;;;7.17;100.00
8416;BME280;4245;42.120;24.732;2023-03-01T03:53:33;99971.91;;;7.07;100.00
8416;BME280;4245;42.120;24.732;2023-03-01T03:56:00;99977.94;;;7.11;100.00
8416;BME280;4245;42.120;24.732;2023-03-01T03:58:27;99972.41;;;6.96;100.00
8416;BME280;4245;42.120;24.732;2023-03-01T04:00:55;99983.94;;;7.14;100.00
8416;BME280;4245;42.120;24.732;2023-03-01T04:03:24;99981.94;;;7.19;100.00
8416;BME280;4245;42.120;24.732;2023-03-01T04:05:52;99978.38;;;7.20;100.00
8416;BME280;4245;42.120;24.732;2023-03-01T04:08:21;99976.22;;;7.10;100.00
8416;BME280;4245;42.120;24.732;2023-03-01T04:10:50;99965.88;;;7.05;100.00
8416;BME280;4245;42.120;24.732;2023-03-01T04:13:19;99974.84;;;7.01;100.00
8416;BME280;4245;42.120;24.732;2023-03-01T04:15:46;99983.94;;;7.14;100.00
8416;BME280;4245;42.120;24.732;2023-03-01T04:18:16;99985.22;;;7.06;100.00
8416;BME280;4245;42.120;24.732;2023-03-01T04:20:43;99993.59;;;7.15;100.00
8416;BME280;4245;42.120;24.732;2023-03-01T04:23:13;99985.06;;;7.09;100.00
8416;BME280;4245;42.120;24.732;2023-03-01T04:25:46;99982.28;;;7.12;100.00
8416;BME280;4245;42.120;24.732;2023-03-01T04:28:14;99981.78;;;7.22;100.00
8416;BME280;4245;42.120;24.732;2023-03-01T04:30:41;99980.38;;;7.15;100.00
8416;BME280;4245;42.120;24.732;2023-03-01T04:33:10;99981.66;;;7.07;100.00
8416;BME280;4245;42.120;24.732;2023-03-01T04:35:38;99983.75;;;6.98;100.00
8416;BME280;4245;42.120;24.732;2023-03-01T04:38:06;99992.69;;;6.96;100.00
8416;BME280;4245;42.120;24.732;2023-03-01T04:40:33;99993.25;;;7.03;100.00
8416;BME280;4245;42.120;24.732;2023-03-01T04:43:02;99992.47;;;7.01;100.00
8416;BME280;4245;42.120;24.732;2023-03-01T04:45:29;99996.66;;;7.06;100.00
8416;BME280;4245;42.120;24.732;2023-03-01T04:47:56;99994.06;;;7.05;100.00
8416;BME280;4245;42.120;24.732;2023-03-01T04:50:24;99994.06;;;7.05;100.00
8416;BME280;4245;42.120;24.732;2023-03-01T04:52:51;99994.06;;;7.05;100.00
8416;BME280;4245;42.120;24.732;2023-03-01T04:55:19;99985.53;;;6.98;100.00
8416;BME280;4245;42.120;24.732;2023-03-01T04:57:46;99993.47;;;6.98;100.00
8416;BME280;4245;42.120;24.732;2023-03-01T05:00:15;99995.03;;;7.02;100.00
8416;BME280;4245;42.120;24.732;2023-03-01T05:02:50;99989.69;;;7.04;100.00
8416;BME280;4245;42.120;24.732;2023-03-01T05:05:24;99986.94;;;7.07;100.00
8416;BME280;4245;42.120;24.732;2023-03-01T05:07:56;99984.91;;;7.12;100.00
8416;BME280;4245;42.120;24.732;2023-03-01T05:10:24;99979.94;;;7.06;100.00
8416;BME280;4245;42.120;24.732;2023-03-01T05:12:51;99983.03;;;6.95;100.00
8416;BME280;4245;42.120;24.732;2023-03-01T05:15:20;99981.81;;;7.02;100.00
8416;BME280;4245;42.120;24.732;2023-03-01T05:17:51;99987.09;;;7.02;100.00
8416;BME280;4245;42.120;24.732;2023-03-01T05:20:18;99980.34;;;6.96;100.00
8416;BME280;4245;42.120;24.732;2023-03-01T05:22:48;99982.97;;;6.96;100.00
8416;BME280;4245;42.120;24.732;2023-03-01T05:25:15;99992.28;;;7.05;100.00
8416;BME280;4245;42.120;24.732;2023-03-01T05:27:43;99988.78;;;7.05;100.00
8416;BME280;4245;42.120;24.732;2023-03-01T05:30:11;99984.34;;;7.05;100.00
8416;BME280;4245;42.120;24.732;2023-03-01T05:32:45;99986.94;;;7.07;100.00
8416;BME280;4245;42.120;24.732;2023-03-01T05:35:14;99996.25;;;7.71;100.00
8416;BME280;4245;42.120;24.732;2023-03-01T05:37:42;100004.63;;;7.81;100.00
8416;BME280;4245;42.120;24.732;2023-03-01T05:40:11;100000.13;;;8.55;100.00
8416;BME280;4245;42.120;24.732;2023-03-01T05:42:44;100004.56;;;8.54;100.00
8416;BME280;4245;42.120;24.732;2023-03-01T05:45:12;100009.66;;;8.04;100.00
8416;BME280;4245;42.120;24.732;2023-03-01T05:47:40;100009.19;;;7.96;100.00
8416;BME280;4245;42.120;24.732;2023-03-01T05:50:13;100019.19;;;7.90;100.00
8416;BME280;4245;42.120;24.732;2023-03-01T05:52:44;100018.41;;;7.88;100.00
8416;BME280;4245;42.120;24.732;2023-03-01T05:55:11;100020.22;;;7.68;100.00
8416;BME280;4245;42.120;24.732;2023-03-01T05:57:38;100020.06;;;7.71;100.00
8416;BME280;4245;42.120;24.732;2023-03-01T06:00:06;100026.56;;;7.83;100.00
8416;BME280;4245;42.120;24.732;2023-03-01T06:02:33;100033.38;;;7.89;100.00
8416;BME280;4245;42.120;24.732;2023-03-01T06:05:00;100027.78;;;7.76;100.00
8416;BME280;4245;42.120;24.732;2023-03-01T06:07:29;100031.56;;;7.70;100.00
8416;BME280;4245;42.120;24.732;2023-03-01T06:09:56;100028.69;;;7.75;100.00
8416;BME280;4245;42.120;24.732;2023-03-01T06:12:23;100030.34;;;7.77;100.00
8416;BME280;4245;42.120;24.732;2023-03-01T06:14:50;100025.22;;;7.93;100.00
8416;BME280;4245;42.120;24.732;2023-03-01T06:17:17;100029.81;;;8.25;100.00
8416;BME280;4245;42.120;24.732;2023-03-01T06:19:44;100029.47;;;7.96;100.00
8416;BME280;4245;42.120;24.732;2023-03-01T06:22:11;100030.13;;;7.82;100.00
8416;BME280;4245;42.120;24.732;2023-03-01T06:24:39;100023.28;;;7.78;100.00
8416;BME280;4245;42.120;24.732;2023-03-01T06:27:06;100033.06;;;7.76;100.00
8416;BME280;4245;42.120;24.732;2023-03-01T06:29:33;100025.13;;;7.76;100.00
8416;BME280;4245;42.120;24.732;2023-03-01T06:32:00;100028.84;;;7.72;100.00
8416;BME280;4245;42.120;24.732;2023-03-01T06:34:28;100024.84;;;7.63;100.00
8416;BME280;4245;42.120;24.732;2023-03-01T06:36:55;100027.00;;;7.74;100.00
8416;BME280;4245;42.120;24.732;2023-03-01T06:39:22;100020.63;;;7.78;100.00
8416;BME280;4245;42.120;24.732;2023-03-01T06:41:51;100029.28;;;7.81;100.00
8416;BME280;4245;42.120;24.732;2023-03-01T06:44:18;100023.34;;;7.76;100.00
8416;BME280;4245;42.120;24.732;2023-03-01T06:46:45;100031.06;;;7.81;100.00
8416;BME280;4245;42.120;24.732;2023-03-01T06:49:12;100029.50;;;7.77;100.00
8416;BME280;4245;42.120;24.732;2023-03-01T06:51:39;100030.84;;;7.85;100.00
8416;BME280;4245;42.120;24.732;2023-03-01T06:54:06;100036.00;;;7.89;100.00
8416;BME280;4245;42.120;24.732;2023-03-01T06:56:33;100029.91;;;7.86;100.00
8416;BME280;4245;42.120;24.732;2023-03-01T06:59:02;100036.84;;;7.89;100.00
8416;BME280;4245;42.120;24.732;2023-03-01T07:01:29;100036.00;;;7.89;100.00
8416;BME280;4245;42.120;24.732;2023-03-01T07:03:56;100032.50;;;7.88;100.00
8416;BME280;4245;42.120;24.732;2023-03-01T07:06:23;100035.00;;;7.91;100.00
8416;BME280;4245;42.120;24.732;2023-03-01T07:08:50;100034.00;;;7.94;100.00
8416;BME280;4245;42.120;24.732;2023-03-01T07:11:17;100026.25;;;7.89;100.00
8416;BME280;4245;42.120;24.732;2023-03-01T07:13:44;100035.13;;;8.07;100.00
8416;BME280;4245;42.120;24.732;2023-03-01T07:16:13;100041.50;;;8.03;100.00
8416;BME280;4245;42.120;24.732;2023-03-01T07:18:40;100039.47;;;7.89;100.00
8416;BME280;4245;42.120;24.732;2023-03-01T07:21:08;100033.44;;;7.87;100.00
8416;BME280;4245;42.120;24.732;2023-03-01T07:23:35;100036.00;;;7.89;100.00
8416;BME280;4245;42.120;24.732;2023-03-01T07:26:03;100036.28;;;8.01;100.00
8416;BME280;4245;42.120;24.732;2023-03-01T07:28:30;100027.31;;;8.04;100.00
8416;BME280;4245;42.120;24.732;2023-03-01T07:31:01;100033.03;;;8.13;100.00
8416;BME280;4245;42.120;24.732;2023-03-01T07:33:30;100035.66;;;8.13;100.00
8416;BME280;4245;42.120;24.732;2023-03-01T07:35:57;100029.56;;;8.13;100.00
8416;BME280;4245;42.120;24.732;2023-03-01T07:38:24;100034.69;;;8.16;100.00
8416;BME280;4245;42.120;24.732;2023-03-01T07:40:51;100031.25;;;8.14;100.00
8416;BME280;4245;42.120;24.732;2023-03-01T07:43:19;100024.81;;;8.19;100.00
8416;BME280;4245;42.120;24.732;2023-03-01T07:45:46;100029.44;;;8.33;100.00
8416;BME280;4245;42.120;24.732;2023-03-01T07:48:13;100026.63;;;8.55;100.00
8416;BME280;4245;42.120;24.732;2023-03-01T07:50:41;100027.38;;;8.57;100.00
8416;BME280;4245;42.120;24.732;2023-03-01T07:53:08;100020.63;;;8.51;100.00
8416;BME280;4245;42.120;24.732;2023-03-01T07:55:35;100019.44;;;8.74;100.00
8416;BME280;4245;42.120;24.732;2023-03-01T07:58:02;100015.69;;;9.45;100.00
8416;BME280;4245;42.120;24.732;2023-03-01T08:00:29;100017.31;;;9.48;100.00
8416;BME280;4245;42.120;24.732;2023-03-01T08:02:59;100024.44;;;9.30;100.00
8416;BME280;4245;42.120;24.732;2023-03-01T08:05:26;100017.91;;;9.20;100.00
8416;BME280;4245;42.120;24.732;2023-03-01T08:07:55;100016.13;;;9.21;100.00
8416;BME280;4245;42.120;24.732;2023-03-01T08:10:22;100024.72;;;9.08;100.00
8416;BME280;4245;42.120;24.732;2023-03-01T08:12:51;100022.00;;;9.10;100.00
8416;BME280;4245;42.120;24.732;2023-03-01T08:15:18;100021.31;;;8.89;100.00
8416;BME280;4245;42.120;24.732;2023-03-01T08:17:45;100024.50;;;8.96;100.00
8416;BME280;4245;42.120;24.732;2023-03-01T08:20:12;100030.59;;;8.81;100.00
8416;BME280;4245;42.120;24.732;2023-03-01T08:22:39;100025.75;;;8.71;100.00
8416;BME280;4245;42.120;24.732;2023-03-01T08:25:08;100031.16;;;8.70;100.00
8416;BME280;4245;42.120;24.732;2023-03-01T08:27:35;100021.94;;;8.60;100.00
8416;BME280;4245;42.120;24.732;2023-03-01T08:30:02;100020.56;;;8.70;100.00
8416;BME280;4245;42.120;24.732;2023-03-01T08:32:29;100014.47;;;8.85;100.00
8416;BME280;4245;42.120;24.732;2023-03-01T08:34:56;100020.69;;;9.01;100.00
8416;BME280;4245;42.120;24.732;2023-03-01T08:37:23;100015.63;;;8.97;100.00
8416;BME280;4245;42.120;24.732;2023-03-01T08:39:50;100019.69;;;9.04;100.00
8416;BME280;4245;42.120;24.732;2023-03-01T08:42:18;100025.91;;;9.03;100.00
8416;BME280;4245;42.120;24.732;2023-03-01T08:44:45;100019.84;;;8.84;100.00
8416;BME280;4245;42.120;24.732;2023-03-01T08:47:12;100032.06;;;8.86;100.00
8416;BME280;4245;42.120;24.732;2023-03-01T08:49:40;100029.16;;;8.91;100.00
8416;BME280;4245;42.120;24.732;2023-03-01T08:52:07;100023.41;;;8.83;100.00
8416;BME280;4245;42.120;24.732;2023-03-01T08:54:34;100019.78;;;8.85;100.00
8416;BME280;4245;42.120;24.732;2023-03-01T08:57:01;100012.72;;;9.19;100.00
8416;BME280;4245;42.120;24.732;2023-03-01T08:59:30;100013.22;;;9.25;100.00
8416;BME280;4245;42.120;24.732;2023-03-01T09:02:02;100013.28;;;9.08;100.00
8416;BME280;4245;42.120;24.732;2023-03-01T09:04:29;100011.78;;;9.02;100.00
8416;BME280;4245;42.120;24.732;2023-03-01T09:06:56;100017.53;;;9.10;100.00
8416;BME280;4245;42.120;24.732;2023-03-01T09:09:23;100016.88;;;8.90;100.00
8416;BME280;4245;42.120;24.732;2023-03-01T09:11:50;100016.53;;;8.96;100.00
8416;BME280;4245;42.120;24.732;2023-03-01T09:14:17;100021.53;;;9.02;100.00
8416;BME280;4245;42.120;24.732;2023-03-01T09:16:45;100013.63;;;8.85;100.00
8416;BME280;4245;42.120;24.732;2023-03-01T09:19:12;100017.25;;;8.82;100.00
8416;BME280;4245;42.120;24.732;2023-03-01T09:21:39;100019.44;;;8.91;100.00
8416;BME280;4245;42.120;24.732;2023-03-01T09:24:12;100024.59;;;8.94;100.00
8416;BME280;4245;42.120;24.732;2023-03-01T09:26:39;100015.13;;;9.06;100.00
8416;BME280;4245;42.120;24.732;2023-03-01T09:29:06;100013.28;;;9.08;100.00
8416;BME280;4245;42.120;24.732;2023-03-01T09:31:34;100022.41;;;9.02;100.00
8416;BME280;4245;42.120;24.732;2023-03-01T09:34:03;100008.75;;;9.10;100.00
8416;BME280;4245;42.120;24.732;2023-03-01T09:36:30;100002.44;;;9.12;100.00
8416;BME280;4245;42.120;24.732;2023-03-01T09:38:58;100008.28;;;9.19;100.00
8416;BME280;4245;42.120;24.732;2023-03-01T09:41:38;100004.91;;;9.15;100.00
8416;BME280;4245;42.120;24.732;2023-03-01T09:44:18;100015.81;;;9.27;100.00
8416;BME280;4245;42.120;24.732;2023-03-01T09:46:48;100014.75;;;9.13;100.00
8416;BME280;4245;42.120;24.732;2023-03-01T09:49:18;100007.25;;;9.22;100.00
8416;BME280;4245;42.120;24.732;2023-03-01T09:51:55;100002.22;;;9.33;100.00
8416;BME280;4245;42.120;24.732;2023-03-01T09:54:22;100004.47;;;9.40;100.00
8416;BME280;4245;42.120;24.732;2023-03-01T09:56:59;99999.16;;;9.40;100.00
8416;BME280;4245;42.120;24.732;2023-03-01T09:59:32;99995.22;;;9.32;100.00
8416;BME280;4245;42.120;24.732;2023-03-01T10:02:16;99992.63;;;9.30;100.00
8416;BME280;4245;42.120;24.732;2023-03-01T10:04:50;99989.91;;;9.32;100.00
8416;BME280;4245;42.120;24.732;2023-03-01T10:07:25;99992.97;;;9.24;100.00
8416;BME280;4245;42.120;24.732;2023-03-01T10:09:54;99992.97;;;9.24;100.00
8416;BME280;4245;42.120;24.732;2023-03-01T10:12:24;99992.31;;;9.36;100.00
8416;BME280;4245;42.120;24.732;2023-03-01T10:14:56;99985.91;;;9.40;100.00
8416;BME280;4245;42.120;24.732;2023-03-01T10:17:30;99985.41;;;9.34;100.00
8416;BME280;4245;42.120;24.732;2023-03-01T10:20:14;99982.13;;;9.44;100.00
8416;BME280;4245;42.120;24.732;2023-03-01T10:22:42;99981.09;;;9.31;100.00
8416;BME280;4245;42.120;24.732;2023-03-01T10:25:14;99983.69;;;9.33;100.00
8416;BME280;4245;42.120;24.732;2023-03-01T10:27:49;99978.75;;;9.25;100.00
8416;BME280;4245;42.120;24.732;2023-03-01T10:30:20;99978.66;;;9.11;100.00
8416;BME280;4245;42.120;24.732;2023-03-01T10:32:49;99982.00;;;9.14;100.00
8416;BME280;4245;42.120;24.732;2023-03-01T10:35:22;99978.13;;;9.04;100.00
8416;BME280;4245;42.120;24.732;2023-03-01T10:38:03;99977.59;;;8.98;100.00
8416;BME280;4245;42.120;24.732;2023-03-01T10:40:31;99979.22;;;9.33;100.00
8416;BME280;4245;42.120;24.732;2023-03-01T10:42:59;99980.19;;;9.48;100.00
8416;BME280;4245;42.120;24.732;2023-03-01T10:45:32;99981.28;;;9.28;100.00
8416;BME280;4245;42.120;24.732;2023-03-01T10:48:12;99978.13;;;9.04;100.00
8416;BME280;4245;42.120;24.732;2023-03-01T10:50:42;99976.97;;;9.10;100.00
8416;BME280;4245;42.120;24.732;2023-03-01T10:53:22;99969.19;;;9.23;100.00
8416;BME280;4245;42.120;24.732;2023-03-01T10:55:58;99973.31;;;9.28;100.00
8416;BME280;4245;42.120;24.732;2023-03-01T10:58:27;99970.38;;;9.17;100.00
8416;BME280;4245;42.120;24.732;2023-03-01T11:00:56;99966.19;;;9.13;100.00
8416;BME280;4245;42.120;24.732;2023-03-01T11:03:24;99958.88;;;9.01;100.00
8416;BME280;4245;42.120;24.732;2023-03-01T11:05:56;99940.75;;;8.93;100.00
8416;BME280;4245;42.120;24.732;2023-03-01T11:08:40;99944.53;;;9.05;100.00
8416;BME280;4245;42.120;24.732;2023-03-01T11:11:21;99935.81;;;9.03;100.00
8416;BME280;4245;42.120;24.732;2023-03-01T11:13:54;99926.81;;;9.05;100.00
8416;BME280;4245;42.120;24.732;2023-03-01T11:16:31;99929.94;;;9.13;100.00
8416;BME280;4245;42.120;24.732;2023-03-01T11:19:13;99928.28;;;9.11;100.00
8416;BME280;4245;42.120;24.732;2023-03-01T11:21:53;99931.97;;;9.08;100.00
8416;BME280;4245;42.120;24.732;2023-03-01T11:24:27;99924.28;;;9.04;100.00
8416;BME280;4245;42.120;24.732;2023-03-01T11:26:56;99927.59;;;9.07;100.00
8416;BME280;4245;42.120;24.732;2023-03-01T11:29:28;99924.38;;;9.18;100.00
8416;BME280;4245;42.120;24.732;2023-03-01T11:32:00;99919.34;;;9.13;100.00
8416;BME280;4245;42.120;24.732;2023-03-01T11:34:38;99910.44;;;9.14;100.00
8416;BME280;4245;42.120;24.732;2023-03-01T11:37:16;99903.94;;;9.20;100.00
8416;BME280;4245;42.120;24.732;2023-03-01T11:39:53;99895.84;;;9.39;100.00
8416;BME280;4245;42.120;24.732;2023-03-01T11:42:28;99899.94;;;9.44;100.00
8416;BME280;4245;42.120;24.732;2023-03-01T11:45:02;99896.69;;;9.39;100.00
8416;BME280;4245;42.120;24.732;2023-03-01T11:47:45;99891.63;;;9.35;100.00
8416;BME280;4245;42.120;24.732;2023-03-01T11:50:26;99891.13;;;9.28;100.00
8416;BME280;4245;42.120;24.732;2023-03-01T11:53:06;99887.19;;;9.35;100.00
8416;BME280;4245;42.120;24.732;2023-03-01T11:55:46;99887.38;;;9.48;100.00
8416;BME280;4245;42.120;24.732;2023-03-01T11:58:25;99891.16;;;9.44;100.00
8416;BME280;4245;42.120;24.732;2023-03-01T12:01:02;99887.63;;;9.43;100.00
8416;BME280;4245;42.120;24.732;2023-03-01T12:03:52;99894.03;;;9.55;100.00
8416;BME280;4245;42.120;24.732;2023-03-01T12:09:27;99882.38;;;9.73;100.00
8416;BME280;4245;42.120;24.732;2023-03-01T12:12:12;99888.72;;;9.71;100.00
8416;BME280;4245;42.120;24.732;2023-03-01T12:14:54;99886.59;;;9.62;100.00
8416;BME280;4245;42.120;24.732;2023-03-01T12:17:40;99879.84;;;9.72;100.00
8416;BME280;4245;42.120;24.732;2023-03-01T12:20:20;99882.38;;;9.73;100.00
8416;BME280;4245;42.120;24.732;2023-03-01T12:23:03;99879.66;;;9.75;100.00
8416;BME280;4245;42.120;24.732;2023-03-01T12:25:45;99870.00;;;9.58;100.00
8416;BME280;4245;42.120;24.732;2023-03-01T12:28:27;99868.56;;;9.52;100.00
8416;BME280;4245;42.120;24.732;2023-03-01T12:31:16;99869.91;;;9.59;100.00
8416;BME280;4245;42.120;24.732;2023-03-01T12:33:59;99863.06;;;9.55;100.00
8416;BME280;4245;42.120;24.732;2023-03-01T12:36:49;99865.63;;;9.73;100.00
8416;BME280;4245;42.120;24.732;2023-03-01T12:39:33;99864.59;;;9.75;100.00
8416;BME280;4245;42.120;24.732;2023-03-01T12:42:12;99864.84;;;9.86;100.00
8416;BME280;4245;42.120;24.732;2023-03-01T12:44:56;99863.91;;;9.72;100.00
8416;BME280;4245;42.120;24.732;2023-03-01T12:47:43;99859.88;;;9.65;100.00
8416;BME280;4245;42.120;24.732;2023-03-01T12:50:19;99862.41;;;9.52;100.00
8416;BME280;4245;42.120;24.732;2023-03-01T12:52:50;99860.16;;;9.44;100.00
8416;BME280;4245;42.120;24.732;2023-03-01T12:55:27;99858.09;;;9.49;100.00
8416;BME280;4245;42.120;24.732;2023-03-01T12:58:03;99861.19;;;9.42;100.00
8416;BME280;4245;42.120;24.732;2023-03-01T13:00:35;99855.56;;;9.48;100.00
8416;BME280;4245;42.120;24.732;2023-03-01T13:03:16;99864.72;;;9.42;100.00
8416;BME280;4245;42.120;24.732;2023-03-01T13:06:02;99866.06;;;9.49;100.00
8416;BME280;4245;42.120;24.732;2023-03-01T13:08:35;99853.31;;;9.40;100.00
8416;BME280;4245;42.120;24.732;2023-03-01T13:11:04;99860.88;;;9.48;100.00
8416;BME280;4245;42.120;24.732;2023-03-01T13:13:33;99857.34;;;9.47;100.00
8416;BME280;4245;42.120;24.732;2023-03-01T13:16:20;99845.44;;;9.70;100.00
8416;BME280;4245;42.120;24.732;2023-03-01T13:18:48;99856.34;;;9.80;100.00
8416;BME280;4245;42.120;24.732;2023-03-01T13:21:29;99857.22;;;9.80;100.00
8416;BME280;4245;42.120;24.732;2023-03-01T13:23:56;99863.81;;;9.73;100.00
8416;BME280;4245;42.120;24.732;2023-03-01T13:26:23;99872.56;;;9.59;100.00
8416;BME280;4245;42.120;24.732;2023-03-01T13:28:56;99866.59;;;9.56;100.00